createdAt,value
2022-12-31T00:02:23.946Z,9.00
2022-12-31T00:05:11.849Z,6.78
2022-12-31T00:07:45.909Z,11.40
2022-12-31T00:10:33.833Z,12.60
2022-12-31T00:13:13.817Z,9.38
2022-12-31T00:16:05.443Z,11.02
2022-12-31T00:18:46.537Z,7.43
2022-12-31T00:21:33.827Z,9.00
2022-12-31T00:24:08.012Z,10.23
2022-12-31T00:26:55.855Z,8.82
2022-12-31T00:29:29.863Z,8.85
2022-12-31T00:32:17.866Z,5.32
2022-12-31T00:34:51.826Z,10.82
2022-12-31T00:37:39.866Z,7.55
2022-12-31T00:40:14.470Z,9.80
2022-12-31T00:43:01.846Z,6.93
2022-12-31T00:45:41.817Z,8.65
2022-12-31T00:48:22.930Z,9.35
2022-12-31T00:51:03.847Z,8.70
2022-12-31T00:53:44.957Z,7.65
2022-12-31T00:56:33.846Z,7.35
2022-12-31T00:59:07.934Z,5.82
2022-12-31T01:01:56.973Z,5.68
2022-12-31T01:04:30.939Z,7.60
2022-12-31T01:07:17.853Z,5.68
2022-12-31T01:09:59.857Z,7.22
2022-12-31T01:12:46.837Z,7.65
2022-12-31T01:15:27.882Z,7.43
2022-12-31T01:18:21.820Z,7.28
2022-12-31T01:21:10.848Z,6.53
2022-12-31T01:23:58.864Z,7.93
2022-12-31T01:26:46.845Z,7.47
2022-12-31T01:29:27.931Z,9.45
2022-12-31T01:32:07.816Z,8.23
2022-12-31T01:34:49.039Z,7.05
2022-12-31T01:37:28.858Z,7.10
2022-12-31T01:40:09.938Z,7.05
2022-12-31T01:42:50.823Z,7.45
2022-12-31T01:45:31.930Z,7.25
2022-12-31T01:48:19.827Z,5.22
2022-12-31T01:50:53.933Z,5.63
2022-12-31T01:53:41.100Z,6.03
2022-12-31T01:56:14.941Z,5.72
2022-12-31T01:59:03.866Z,6.75
2022-12-31T02:01:40.041Z,6.22
2022-12-31T02:04:27.855Z,6.15
2022-12-31T02:07:07.082Z,7.45
2022-12-31T02:09:54.864Z,6.00
2022-12-31T02:12:28.907Z,6.57
2022-12-31T02:15:16.883Z,5.07
2022-12-31T02:18:06.874Z,7.57
2022-12-31T02:21:24.870Z,6.63
2022-12-31T02:24:24.835Z,6.30
2022-12-31T02:27:04.106Z,6.03
2022-12-31T02:30:09.905Z,7.10
2022-12-31T02:32:50.840Z,4.53
2022-12-31T02:36:05.825Z,6.22
2022-12-31T02:39:01.867Z,7.00
2022-12-31T02:41:57.981Z,6.78
2022-12-31T02:44:36.964Z,4.60
2022-12-31T02:47:37.855Z,6.50
2022-12-31T02:50:37.171Z,6.60
2022-12-31T02:53:28.865Z,6.95
2022-12-31T02:56:27.984Z,5.78
2022-12-31T02:59:35.845Z,5.45
2022-12-31T03:05:02.602Z,4.45
2022-12-31T03:07:49.835Z,6.60
2022-12-31T03:10:23.840Z,5.70
2022-12-31T03:13:11.848Z,6.30
2022-12-31T03:15:45.772Z,6.60
2022-12-31T03:18:53.847Z,6.40
2022-12-31T03:21:46.703Z,8.45
2022-12-31T03:24:51.867Z,6.80
2022-12-31T03:27:25.776Z,5.57
2022-12-31T03:30:13.816Z,5.20
2022-12-31T03:32:54.845Z,5.45
2022-12-31T03:35:43.871Z,5.15
2022-12-31T03:38:18.387Z,5.97
2022-12-31T03:40:59.831Z,6.43
2022-12-31T03:43:33.936Z,6.72
2022-12-31T03:46:13.895Z,4.13
2022-12-31T03:48:54.926Z,5.63
2022-12-31T03:51:34.885Z,6.10
2022-12-31T03:54:22.827Z,6.30
2022-12-31T03:57:00.002Z,5.20
2022-12-31T03:59:47.839Z,6.50
2022-12-31T04:02:28.089Z,4.82
2022-12-31T04:05:16.865Z,5.32
2022-12-31T04:07:52.143Z,7.35
2022-12-31T04:10:39.930Z,6.28
2022-12-31T04:13:13.844Z,5.38
2022-12-31T04:16:03.868Z,4.97
2022-12-31T04:18:37.791Z,6.40
2022-12-31T04:21:30.106Z,4.80
2022-12-31T04:24:07.212Z,6.03
2022-12-31T04:26:54.882Z,4.95
2022-12-31T04:29:34.880Z,6.63
2022-12-31T04:32:22.837Z,5.75
2022-12-31T04:34:56.780Z,4.53
2022-12-31T04:37:44.849Z,4.72
2022-12-31T04:40:18.899Z,6.90
2022-12-31T04:43:06.861Z,5.97
2022-12-31T04:45:46.918Z,6.22
2022-12-31T04:48:34.857Z,4.95
2022-12-31T04:51:08.801Z,5.03
2022-12-31T04:53:57.828Z,5.15
2022-12-31T04:56:32.480Z,7.38
2022-12-31T04:59:19.888Z,6.65
2022-12-31T05:02:13.972Z,4.45
2022-12-31T05:05:00.919Z,4.15
2022-12-31T05:07:48.858Z,5.45
2022-12-31T05:10:29.850Z,5.22
2022-12-31T05:13:17.836Z,5.43
2022-12-31T05:15:58.877Z,5.82
2022-12-31T05:18:39.978Z,5.93
2022-12-31T05:21:27.842Z,5.55
2022-12-31T05:24:01.920Z,4.85
2022-12-31T05:26:49.858Z,5.70
2022-12-31T05:29:23.934Z,4.70
2022-12-31T05:32:11.871Z,4.63
2022-12-31T05:34:45.937Z,5.82
2022-12-31T05:37:34.877Z,5.10
2022-12-31T05:40:15.879Z,4.63
2022-12-31T05:43:09.875Z,3.17
2022-12-31T05:45:57.062Z,5.50
2022-12-31T05:48:31.165Z,4.95
2022-12-31T05:51:17.885Z,5.70
2022-12-31T05:53:52.209Z,4.63
2022-12-31T05:56:39.881Z,4.90
2022-12-31T05:59:20.932Z,5.57
2022-12-31T06:02:01.905Z,4.55
2022-12-31T06:04:42.929Z,4.05
2022-12-31T06:07:22.897Z,5.20
2022-12-31T06:10:10.858Z,5.95
2022-12-31T06:12:44.825Z,5.15
2022-12-31T06:15:32.974Z,4.93
2022-12-31T06:18:06.878Z,4.90
2022-12-31T06:20:54.910Z,4.53
2022-12-31T06:23:28.834Z,4.57
2022-12-31T06:26:19.872Z,4.95
2022-12-31T06:28:53.835Z,4.90
2022-12-31T06:31:41.880Z,5.07
2022-12-31T06:34:15.811Z,4.15
2022-12-31T06:37:03.851Z,3.90
2022-12-31T06:39:44.814Z,4.53
2022-12-31T06:42:32.920Z,4.07
2022-12-31T06:45:07.201Z,5.13
2022-12-31T06:47:54.908Z,5.38
2022-12-31T06:50:28.890Z,5.25
2022-12-31T06:53:16.871Z,3.58
2022-12-31T06:55:50.948Z,4.35
2022-12-31T06:58:38.856Z,4.22
2022-12-31T07:01:33.764Z,4.68
2022-12-31T07:04:47.901Z,4.88
2022-12-31T07:07:37.867Z,5.30
2022-12-31T07:10:15.000Z,5.57
2022-12-31T07:15:39.001Z,4.68
2022-12-31T07:18:27.840Z,4.32
2022-12-31T07:21:08.888Z,4.63
2022-12-31T07:23:42.952Z,5.03
2022-12-31T07:26:56.206Z,5.30
2022-12-31T07:29:58.857Z,5.00
2022-12-31T07:33:07.862Z,4.75
2022-12-31T07:36:21.885Z,4.80
2022-12-31T07:39:08.896Z,4.95
2022-12-31T07:42:11.894Z,2.92
2022-12-31T07:45:06.103Z,3.85
2022-12-31T07:47:58.905Z,4.82
2022-12-31T07:50:43.848Z,4.18
2022-12-31T07:53:38.888Z,4.40
2022-12-31T07:56:26.903Z,4.30
2022-12-31T07:59:03.988Z,3.78
2022-12-31T08:01:55.981Z,3.42
2022-12-31T08:05:02.000Z,2.90
2022-12-31T08:07:41.866Z,3.50
2022-12-31T08:10:31.987Z,3.65
2022-12-31T08:15:40.736Z,3.20
2022-12-31T08:18:27.912Z,2.72
2022-12-31T08:21:18.169Z,3.25
2022-12-31T08:24:14.913Z,3.70
2022-12-31T08:27:07.751Z,3.70
2022-12-31T08:30:00.890Z,3.42
2022-12-31T08:32:59.924Z,3.53
2022-12-31T08:35:54.981Z,3.75
2022-12-31T08:38:34.926Z,3.63
2022-12-31T08:41:43.138Z,3.20
2022-12-31T08:44:22.925Z,3.65
2022-12-31T08:47:10.986Z,2.85
2022-12-31T08:49:51.894Z,3.05
2022-12-31T08:52:34.034Z,2.40
2022-12-31T08:55:14.868Z,4.13
2022-12-31T08:58:14.997Z,3.40
2022-12-31T09:01:00.023Z,3.90
2022-12-31T09:03:40.968Z,4.30
2022-12-31T09:06:27.868Z,4.05
2022-12-31T09:09:14.955Z,3.72
2022-12-31T09:12:16.903Z,3.42
2022-12-31T09:14:51.941Z,3.78
2022-12-31T09:17:56.917Z,2.63
2022-12-31T09:20:42.858Z,3.63
2022-12-31T09:23:30.902Z,2.92
2022-12-31T09:26:14.252Z,3.08
2022-12-31T09:29:15.888Z,4.07
2022-12-31T09:31:59.911Z,3.28
2022-12-31T09:35:07.883Z,3.35
2022-12-31T09:38:11.645Z,3.60
2022-12-31T09:40:58.903Z,4.47
2022-12-31T09:43:38.969Z,5.28
2022-12-31T09:46:35.901Z,6.07
2022-12-31T09:49:19.884Z,4.90
2022-12-31T09:52:32.871Z,5.32
2022-12-31T09:55:51.916Z,5.63
2022-12-31T09:58:50.927Z,5.63
2022-12-31T10:01:50.061Z,4.95
2022-12-31T10:04:46.883Z,5.28
2022-12-31T10:07:52.026Z,5.97
2022-12-31T10:10:35.897Z,5.15
2022-12-31T10:13:32.783Z,5.70
2022-12-31T10:16:20.987Z,5.30
2022-12-31T10:19:10.190Z,5.70
2022-12-31T10:22:07.941Z,5.32
2022-12-31T10:24:59.715Z,4.93
2022-12-31T10:28:12.895Z,5.40
2022-12-31T10:30:56.299Z,4.45
2022-12-31T10:34:13.942Z,5.10
2022-12-31T10:36:53.926Z,5.97
2022-12-31T10:39:53.911Z,5.75
2022-12-31T10:42:30.656Z,5.35
2022-12-31T10:45:43.978Z,5.85
2022-12-31T10:48:32.969Z,5.82
2022-12-31T10:51:32.925Z,6.28
2022-12-31T10:54:19.670Z,6.43
2022-12-31T10:57:24.929Z,6.20
2022-12-31T11:00:08.888Z,6.43
2022-12-31T11:03:11.968Z,5.13
2022-12-31T11:06:37.899Z,6.07
2022-12-31T11:09:43.896Z,6.15
2022-12-31T11:12:18.143Z,5.25
2022-12-31T11:15:07.906Z,5.63
2022-12-31T11:17:58.910Z,6.85
2022-12-31T11:20:51.718Z,5.85
2022-12-31T11:23:38.918Z,6.22
2022-12-31T11:26:48.491Z,7.90
2022-12-31T11:29:54.941Z,7.43
2022-12-31T11:32:28.831Z,7.70
2022-12-31T11:35:22.897Z,7.28
2022-12-31T11:38:12.926Z,5.35
2022-12-31T11:41:48.997Z,5.45
2022-12-31T11:44:47.914Z,5.63
2022-12-31T11:48:28.017Z,6.13
2022-12-31T11:51:16.060Z,5.80
2022-12-31T11:54:22.946Z,5.40
2022-12-31T11:57:15.555Z,5.55
2022-12-31T12:00:14.934Z,5.85
2022-12-31T12:03:11.959Z,6.65
2022-12-31T12:05:58.913Z,6.00
2022-12-31T12:08:33.068Z,6.40
2022-12-31T12:11:24.913Z,6.45
2022-12-31T12:13:59.001Z,6.28
2022-12-31T12:16:46.924Z,7.13
2022-12-31T12:19:28.027Z,6.70
2022-12-31T12:22:16.929Z,7.50
2022-12-31T12:25:26.908Z,7.72
2022-12-31T12:28:11.626Z,9.18
2022-12-31T12:30:59.030Z,8.95
2022-12-31T12:33:49.947Z,10.85
2022-12-31T12:36:59.891Z,8.43
2022-12-31T12:39:47.950Z,8.65
2022-12-31T12:42:22.007Z,5.55
2022-12-31T12:45:14.917Z,8.40
2022-12-31T12:47:56.907Z,8.13
2022-12-31T12:50:50.925Z,7.97
2022-12-31T12:53:43.980Z,8.57
2022-12-31T12:56:46.929Z,8.80
2022-12-31T12:59:42.929Z,7.72
2022-12-31T13:02:45.940Z,6.93
2022-12-31T13:05:40.944Z,6.65
2022-12-31T13:09:03.992Z,5.90
2022-12-31T13:12:02.307Z,4.55
2022-12-31T13:15:00.943Z,6.07
2022-12-31T13:17:55.023Z,5.18
2022-12-31T13:20:59.933Z,4.88
2022-12-31T13:23:55.028Z,5.68
2022-12-31T13:26:45.947Z,4.45
2022-12-31T13:29:37.904Z,4.35
2022-12-31T13:32:16.095Z,4.85
2022-12-31T13:35:07.925Z,4.68
2022-12-31T13:37:42.711Z,4.25
2022-12-31T13:40:39.918Z,4.03
2022-12-31T13:43:35.216Z,3.75
2022-12-31T13:46:22.967Z,4.57
2022-12-31T13:49:16.920Z,4.10
2022-12-31T13:52:00.076Z,4.60
2022-12-31T13:54:42.913Z,5.05
2022-12-31T13:57:39.032Z,4.25
2022-12-31T14:00:32.959Z,3.88
2022-12-31T14:03:31.952Z,3.78
2022-12-31T14:06:17.615Z,3.83
2022-12-31T14:09:05.946Z,4.03
2022-12-31T14:11:45.966Z,4.97
2022-12-31T14:14:51.966Z,4.22
2022-12-31T14:17:48.098Z,3.60
2022-12-31T14:20:53.913Z,3.72
2022-12-31T14:23:46.227Z,3.63
2022-12-31T14:26:33.922Z,4.10
2022-12-31T14:29:11.078Z,3.72
2022-12-31T14:34:32.844Z,3.75
2022-12-31T14:37:50.946Z,4.03
2022-12-31T14:40:24.902Z,3.70
2022-12-31T14:43:21.973Z,4.07
2022-12-31T14:46:16.959Z,5.60
2022-12-31T14:48:56.227Z,5.25
2022-12-31T14:51:43.957Z,4.88
2022-12-31T14:54:42.017Z,5.95
2022-12-31T14:57:24.969Z,5.57
2022-12-31T15:00:07.027Z,4.05
2022-12-31T15:03:00.093Z,4.93
2022-12-31T15:05:43.033Z,4.13
2022-12-31T15:08:35.974Z,3.67
2022-12-31T15:11:23.026Z,2.75
2022-12-31T15:14:02.925Z,3.70
2022-12-31T15:16:46.069Z,4.07
2022-12-31T15:19:32.919Z,3.30
2022-12-31T15:22:22.054Z,2.58
2022-12-31T15:25:09.943Z,3.35
2022-12-31T15:27:46.035Z,3.22
2022-12-31T15:33:16.069Z,2.90
2022-12-31T15:36:03.945Z,3.95
2022-12-31T15:38:45.034Z,4.15
2022-12-31T15:42:03.102Z,4.05
2022-12-31T15:45:03.967Z,4.97
2022-12-31T15:47:41.883Z,5.10
2022-12-31T15:50:31.939Z,4.57
2022-12-31T15:53:07.107Z,4.45
2022-12-31T15:55:59.952Z,4.93
2022-12-31T15:58:36.155Z,5.65
2022-12-31T16:01:28.033Z,4.55
2022-12-31T16:04:06.312Z,3.78
2022-12-31T16:06:54.000Z,3.30
2022-12-31T16:09:34.607Z,4.43
2022-12-31T16:12:35.183Z,3.88
2022-12-31T16:15:21.308Z,4.95
2022-12-31T16:18:17.158Z,6.20
2022-12-31T16:20:54.908Z,6.70
2022-12-31T16:23:42.937Z,5.70
2022-12-31T16:26:23.959Z,4.20
2022-12-31T16:29:11.942Z,4.03
2022-12-31T16:31:52.928Z,5.55
2022-12-31T16:34:34.028Z,3.67
2022-12-31T16:37:27.978Z,4.63
2022-12-31T16:40:24.284Z,5.30
2022-12-31T16:43:03.944Z,3.88
2022-12-31T16:45:45.088Z,3.70
2022-12-31T16:48:27.968Z,3.17
2022-12-31T16:51:15.962Z,3.95
2022-12-31T16:53:50.280Z,3.53
2022-12-31T16:56:37.946Z,5.15
2022-12-31T16:59:18.641Z,4.05
2022-12-31T17:02:07.218Z,6.85
2022-12-31T17:04:48.041Z,4.75
2022-12-31T17:07:53.017Z,3.53
2022-12-31T17:10:39.948Z,3.92
2022-12-31T17:13:44.960Z,4.38
2022-12-31T17:16:19.202Z,3.20
2022-12-31T17:19:07.011Z,3.60
2022-12-31T17:21:55.022Z,3.20
2022-12-31T17:24:36.050Z,3.05
2022-12-31T17:27:16.958Z,4.30
2022-12-31T17:30:05.007Z,3.08
2022-12-31T17:32:45.983Z,2.80
2022-12-31T17:35:49.983Z,2.70
2022-12-31T17:38:30.005Z,3.30
2022-12-31T17:41:20.957Z,3.83
2022-12-31T17:44:03.047Z,3.78
2022-12-31T17:46:47.088Z,3.10
2022-12-31T17:49:33.944Z,2.95
2022-12-31T17:52:22.102Z,2.60
2022-12-31T17:55:02.008Z,2.45
2022-12-31T17:57:43.082Z,2.70
2022-12-31T18:00:25.104Z,2.40
2022-12-31T18:03:06.144Z,3.60
2022-12-31T18:05:46.063Z,3.92
2022-12-31T18:08:27.031Z,3.83
2022-12-31T18:11:06.972Z,2.72
2022-12-31T18:13:48.048Z,2.70
2022-12-31T18:16:28.104Z,2.03
2022-12-31T18:19:14.089Z,1.90
2022-12-31T18:22:06.966Z,1.70
2022-12-31T18:24:48.158Z,2.03
2022-12-31T18:27:28.050Z,1.38
2022-12-31T18:30:09.741Z,1.30
2022-12-31T18:32:50.985Z,1.85
2022-12-31T18:38:38.966Z,1.38
2022-12-31T18:41:13.108Z,1.80
2022-12-31T18:44:01.019Z,1.30
2022-12-31T18:46:35.095Z,1.40
2022-12-31T18:49:22.040Z,1.52
2022-12-31T18:51:57.011Z,1.65
2022-12-31T18:54:43.999Z,1.50
2022-12-31T18:57:19.114Z,2.00
2022-12-31T19:00:06.965Z,3.38
2022-12-31T19:02:41.149Z,2.35
2022-12-31T19:05:27.979Z,2.28
2022-12-31T19:08:09.005Z,2.00
2022-12-31T19:11:05.013Z,1.85
2022-12-31T19:13:52.965Z,1.65
2022-12-31T19:16:34.047Z,1.45
2022-12-31T19:19:28.990Z,1.40
2022-12-31T19:22:21.058Z,1.83
2022-12-31T19:24:55.084Z,2.08
2022-12-31T19:27:41.960Z,2.42
2022-12-31T19:30:30.061Z,2.25
2022-12-31T19:33:23.992Z,1.35
2022-12-31T19:38:53.012Z,1.83
2022-12-31T19:41:27.063Z,1.92
2022-12-31T19:44:19.984Z,1.48
2022-12-31T19:47:01.010Z,1.58
2022-12-31T19:49:48.034Z,1.48
2022-12-31T19:52:22.054Z,1.50
2022-12-31T19:55:10.029Z,3.42
2022-12-31T19:57:44.074Z,1.50
2022-12-31T20:00:31.010Z,2.38
2022-12-31T20:03:12.111Z,1.92
2022-12-31T20:06:19.001Z,3.08
2022-12-31T20:09:07.005Z,2.22
2022-12-31T20:11:41.114Z,1.45
2022-12-31T20:14:28.006Z,1.70
2022-12-31T20:17:09.057Z,1.38
2022-12-31T20:19:56.018Z,1.38
2022-12-31T20:22:30.084Z,1.27
2022-12-31T20:25:16.987Z,1.60
2022-12-31T20:28:01.566Z,1.42
2022-12-31T20:30:44.088Z,1.50
2022-12-31T20:33:25.110Z,1.40
2022-12-31T20:36:11.004Z,1.70
2022-12-31T20:38:52.177Z,1.10
2022-12-31T20:41:33.991Z,1.83
2022-12-31T20:44:15.111Z,1.50
2022-12-31T20:46:55.153Z,1.38
2022-12-31T20:50:09.653Z,1.40
2022-12-31T20:52:37.039Z,2.10
2022-12-31T20:55:26.037Z,1.58
2022-12-31T20:58:19.973Z,6.25
2022-12-31T21:01:08.170Z,2.00
2022-12-31T21:06:50.060Z,3.60
2022-12-31T21:09:24.177Z,5.90
2022-12-31T21:12:30.054Z,3.00
2022-12-31T21:15:04.083Z,17.17
2022-12-31T21:17:51.018Z,8.32
2022-12-31T21:20:31.118Z,1.95
2022-12-31T21:23:12.006Z,3.60
2022-12-31T21:25:53.021Z,3.67
2022-12-31T21:28:27.117Z,4.78
2022-12-31T21:31:15.201Z,4.05
2022-12-31T21:33:53.126Z,4.68
2022-12-31T21:36:40.048Z,4.72
2022-12-31T21:39:14.155Z,5.93
2022-12-31T21:42:02.034Z,4.97
2022-12-31T21:44:36.094Z,4.70
2022-12-31T21:47:47.411Z,5.05
2022-12-31T21:50:22.125Z,3.50
2022-12-31T21:53:09.029Z,4.28
2022-12-31T21:56:15.007Z,6.15
2022-12-31T21:59:13.217Z,4.10
2022-12-31T22:02:19.118Z,4.28
2022-12-31T22:05:17.365Z,3.17
2022-12-31T22:08:01.055Z,2.67
2022-12-31T22:10:37.250Z,1.27
2022-12-31T22:13:25.012Z,2.25
2022-12-31T22:16:04.643Z,1.95
2022-12-31T22:18:53.049Z,1.98
2022-12-31T22:21:27.597Z,2.58
2022-12-31T22:24:15.027Z,1.45
2022-12-31T22:26:48.987Z,1.02
2022-12-31T22:29:37.021Z,1.08
2022-12-31T22:32:11.035Z,1.17
2022-12-31T22:34:59.062Z,1.20
2022-12-31T22:37:56.840Z,1.48
2022-12-31T22:40:46.046Z,1.60
2022-12-31T22:43:19.999Z,1.27
2022-12-31T22:46:08.094Z,1.20
2022-12-31T22:48:42.617Z,1.45
2022-12-31T22:51:57.604Z,1.73
2022-12-31T22:54:30.069Z,1.33
2022-12-31T22:57:16.137Z,1.40
2022-12-31T23:00:00.066Z,0.90
2022-12-31T23:02:48.072Z,0.95
2022-12-31T23:05:22.005Z,2.78
2022-12-31T23:08:18.795Z,4.28
2022-12-31T23:11:02.734Z,4.47
2022-12-31T23:14:13.065Z,8.85
2022-12-31T23:17:29.801Z,35.28
2022-12-31T23:20:39.126Z,34.58
2022-12-31T23:23:33.065Z,33.85
2022-12-31T23:26:20.040Z,22.23
2022-12-31T23:28:54.112Z,15.25
2022-12-31T23:31:41.110Z,26.15
2022-12-31T23:34:22.167Z,22.92
2022-12-31T23:37:02.042Z,25.10
2022-12-31T23:39:43.151Z,22.55
2022-12-31T23:42:24.052Z,21.52
2022-12-31T23:45:05.132Z,20.77
2022-12-31T23:47:46.058Z,20.27
2022-12-31T23:50:34.065Z,18.10
2022-12-31T23:53:08.031Z,15.05
2022-12-31T23:55:56.044Z,11.98
2022-12-31T23:58:30.145Z,10.65
